Time;durP1;ratioP1;P1;durP2;ratioP2;P2;SDS_P1;SDS_P2;PMS_P1;PMS_P2;Temp;Humidity;BMP_temperature;BMP_pressure;BME280_temperature;BME280_humidity;BME280_pressure;Samples;Min_cycle;Max_cycle;Signal;HPM_P1;HPM_P2
2022/11/23 00:01:32;;;;;;;12.15;5.78;;;;;;;;;;1746878;80;21055;-64
2022/11/23 00:04:05;;;;;;;14.13;6.35;;;;;;;;;;1772108;80;21043;-64
2022/11/23 00:06:33;;;;;;;12.33;6.17;;;;;;;;;;1743854;81;21015;-65
2022/11/23 00:08:59;;;;;;;12.95;6.22;;;;;;;;;;1743849;82;21028;-64
2022/11/23 00:11:27;;;;;;;14.45;6.78;;;;;;;;;;1751180;80;21026;-66
2022/11/23 00:13:54;;;;;;;12.55;6.25;;;;;;;;;;1761394;81;21027;-64
2022/11/23 00:16:22;;;;;;;12.53;6.15;;;;;;;;;;1761476;81;21641;-64
2022/11/23 00:18:50;;;;;;;10.70;5.62;;;;;;;;;;1763153;80;20993;-63
2022/11/23 00:21:17;;;;;;;11.15;5.83;;;;;;;;;;1759304;80;21072;-63
2022/11/23 00:23:43;;;;;;;11.97;5.92;;;;;;;;;;1761123;80;21499;-63
2022/11/23 00:26:09;;;;;;;10.60;6.15;;;;;;;;;;1758154;80;21047;-64
2022/11/23 00:28:38;;;;;;;12.18;6.78;;;;;;;;;;1760890;81;22315;-64
2022/11/23 00:31:03;;;;;;;11.68;5.95;;;;;;;;;;1760679;81;21028;-64
2022/11/23 00:33:29;;;;;;;12.53;6.17;;;;;;;;;;1762916;81;21523;-64
2022/11/23 00:36:04;;;;;;;14.15;6.65;;;;;;;;;;1761815;81;22080;-64
2022/11/23 00:38:30;;;;;;;10.95;5.60;;;;;;;;;;1762044;81;21099;-63
2022/11/23 00:40:58;;;;;;;9.90;5.28;;;;;;;;;;1743266;81;21039;-63
2022/11/23 00:43:25;;;;;;;9.43;5.97;;;;;;;;;;1719755;81;21523;-64
2022/11/23 00:45:53;;;;;;;13.18;6.28;;;;;;;;;;1718883;83;21066;-64
2022/11/23 00:48:19;;;;;;;12.78;6.62;;;;;;;;;;1711667;84;21121;-63
2022/11/23 00:50:45;;;;;;;14.07;6.42;;;;;;;;;;1720361;83;21116;-63
2022/11/23 00:53:12;;;;;;;11.03;6.08;;;;;;;;;;1734881;81;21090;-63
2022/11/23 00:55:38;;;;;;;12.93;7.03;;;;;;;;;;1733180;82;21517;-64
2022/11/23 00:58:05;;;;;;;12.90;7.05;;;;;;;;;;1712502;84;21078;-64
2022/11/23 01:00:31;;;;;;;13.62;6.53;;;;;;;;;;1718424;83;21513;-65
2022/11/23 01:02:58;;;;;;;12.47;6.17;;;;;;;;;;1716204;81;21019;-69
2022/11/23 01:05:24;;;;;;;12.40;6.72;;;;;;;;;;1718042;83;21053;-64
2022/11/23 01:07:50;;;;;;;12.33;6.65;;;;;;;;;;1725731;83;21604;-64
2022/11/23 01:10:16;;;;;;;13.25;6.95;;;;;;;;;;1725588;83;21058;-63
2022/11/23 01:12:44;;;;;;;12.53;6.50;;;;;;;;;;1726285;81;21087;-64
2022/11/23 01:15:12;;;;;;;13.15;6.47;;;;;;;;;;1728846;83;21078;-64
2022/11/23 01:17:39;;;;;;;14.28;6.12;;;;;;;;;;1718449;83;21039;-64
2022/11/23 01:20:08;;;;;;;13.20;6.08;;;;;;;;;;1728072;81;21033;-63
2022/11/23 01:22:36;;;;;;;12.68;6.75;;;;;;;;;;1713382;82;21110;-63
2022/11/23 01:25:03;;;;;;;15.28;6.97;;;;;;;;;;1722185;82;21128;-64
2022/11/23 01:27:29;;;;;;;13.85;6.92;;;;;;;;;;1730960;83;21010;-64
2022/11/23 01:29:57;;;;;;;13.95;5.92;;;;;;;;;;1752808;81;21466;-64
2022/11/23 01:32:23;;;;;;;13.10;6.58;;;;;;;;;;1756582;82;21054;-64
2022/11/23 01:34:50;;;;;;;12.20;6.10;;;;;;;;;;1740942;82;21093;-64
2022/11/23 01:37:16;;;;;;;13.30;6.45;;;;;;;;;;1726374;81;21004;-64
2022/11/23 01:39:44;;;;;;;13.55;6.55;;;;;;;;;;1746165;81;21066;-64
2022/11/23 01:42:10;;;;;;;13.32;6.78;;;;;;;;;;1747826;81;21086;-64
2022/11/23 01:44:39;;;;;;;14.70;7.28;;;;;;;;;;1729668;81;21117;-63
2022/11/23 01:47:06;;;;;;;14.83;7.58;;;;;;;;;;1722106;81;21058;-64
2022/11/23 01:49:40;;;;;;;13.22;6.45;;;;;;;;;;1748617;81;21054;-63
2022/11/23 01:52:09;;;;;;;14.98;6.45;;;;;;;;;;1742070;82;20988;-63
2022/11/23 01:54:38;;;;;;;13.88;6.90;;;;;;;;;;1726406;81;21601;-64
2022/11/23 01:57:06;;;;;;;13.78;6.72;;;;;;;;;;1734784;82;21015;-63
2022/11/23 01:59:32;;;;;;;11.80;5.95;;;;;;;;;;1733387;81;21118;-63
2022/11/23 02:04:42;;;;;;;15.15;8.00;;;;;;;;;;1768013;76;80530;-63
2022/11/23 02:07:10;;;;;;;14.90;6.85;;;;;;;;;;1743418;82;21571;-63
2022/11/23 02:09:37;;;;;;;12.95;6.30;;;;;;;;;;1735690;81;21046;-64
2022/11/23 02:12:05;;;;;;;15.55;6.83;;;;;;;;;;1735307;82;21561;-63
2022/11/23 02:14:32;;;;;;;15.13;6.72;;;;;;;;;;1728291;82;21818;-63
2022/11/23 02:16:58;;;;;;;14.90;6.85;;;;;;;;;;1743016;82;21074;-64
2022/11/23 02:19:42;;;;;;;16.20;7.00;;;;;;;;;;1728954;82;21086;-64
2022/11/23 02:22:10;;;;;;;12.20;5.97;;;;;;;;;;1729273;81;21036;-63
2022/11/23 02:24:39;;;;;;;15.55;7.17;;;;;;;;;;1720699;82;21044;-64
2022/11/23 02:27:07;;;;;;;18.98;8.03;;;;;;;;;;1731907;82;21044;-64
2022/11/23 02:29:34;;;;;;;20.23;7.78;;;;;;;;;;1730675;82;21044;-64
2022/11/23 02:32:02;;;;;;;20.55;7.47;;;;;;;;;;1733192;82;21034;-64
2022/11/23 02:34:28;;;;;;;17.45;8.93;;;;;;;;;;1729580;82;21454;-64
2022/11/23 02:36:55;;;;;;;20.48;9.03;;;;;;;;;;1727026;82;21041;-64
2022/11/23 02:39:36;;;;;;;19.60;8.45;;;;;;;;;;1728066;82;21061;-64
2022/11/23 02:42:03;;;;;;;18.15;8.05;;;;;;;;;;1727780;82;21245;-63
2022/11/23 02:44:34;;;;;;;15.53;7.22;;;;;;;;;;1729620;82;21048;-64
2022/11/23 02:47:00;;;;;;;20.88;8.48;;;;;;;;;;1729013;82;21064;-64
2022/11/23 02:49:27;;;;;;;20.08;7.97;;;;;;;;;;1732220;82;21029;-64
2022/11/23 02:51:54;;;;;;;14.80;6.87;;;;;;;;;;1731468;82;22216;-65
2022/11/23 02:54:23;;;;;;;17.20;7.87;;;;;;;;;;1729537;82;21005;-65
2022/11/23 02:56:52;;;;;;;18.25;7.08;;;;;;;;;;1711045;82;21108;-65
2022/11/23 02:59:19;;;;;;;19.80;8.70;;;;;;;;;;1726025;82;21017;-65
2022/11/23 03:01:46;;;;;;;19.85;8.23;;;;;;;;;;1717413;82;21540;-65
2022/11/23 03:04:13;;;;;;;21.15;8.98;;;;;;;;;;1717504;82;21094;-65
2022/11/23 03:06:39;;;;;;;18.23;8.08;;;;;;;;;;1738330;82;20980;-64
2022/11/23 03:09:06;;;;;;;16.02;7.33;;;;;;;;;;1744089;82;21092;-65
2022/11/23 03:11:32;;;;;;;19.95;7.25;;;;;;;;;;1739725;82;21041;-64
2022/11/23 03:13:59;;;;;;;18.07;7.97;;;;;;;;;;1748373;82;21029;-65
2022/11/23 03:16:26;;;;;;;15.78;7.62;;;;;;;;;;1696032;83;21072;-64
2022/11/23 03:18:52;;;;;;;16.07;6.33;;;;;;;;;;1740987;82;21096;-64
2022/11/23 03:21:18;;;;;;;17.75;7.90;;;;;;;;;;1734786;82;21337;-65
2022/11/23 03:23:45;;;;;;;17.62;7.80;;;;;;;;;;1730404;82;21037;-64
2022/11/23 03:26:11;;;;;;;15.18;7.70;;;;;;;;;;1735012;82;21025;-64
2022/11/23 03:28:40;;;;;;;15.80;6.30;;;;;;;;;;1736897;82;21583;-64
2022/11/23 03:31:06;;;;;;;16.12;7.83;;;;;;;;;;1738333;82;21092;-65
2022/11/23 03:33:32;;;;;;;21.17;7.95;;;;;;;;;;1709797;82;21053;-64
2022/11/23 03:35:58;;;;;;;21.87;7.83;;;;;;;;;;1737233;82;21532;-64
2022/11/23 03:38:27;;;;;;;15.83;7.15;;;;;;;;;;1743348;82;21009;-63
2022/11/23 03:40:53;;;;;;;15.90;7.28;;;;;;;;;;1730863;82;21004;-64
2022/11/23 03:43:24;;;;;;;13.93;6.47;;;;;;;;;;1721438;82;21040;-64
2022/11/23 03:45:51;;;;;;;13.98;6.08;;;;;;;;;;1717719;83;21032;-64
2022/11/23 03:48:17;;;;;;;15.35;6.10;;;;;;;;;;1714673;83;21036;-64
2022/11/23 03:50:44;;;;;;;12.93;6.15;;;;;;;;;;1712164;82;21554;-64
2022/11/23 03:53:11;;;;;;;15.43;6.90;;;;;;;;;;1749452;82;21120;-64
2022/11/23 03:55:37;;;;;;;16.75;6.83;;;;;;;;;;1698173;83;21013;-63
2022/11/23 03:58:04;;;;;;;10.20;5.83;;;;;;;;;;1740906;82;21087;-64
2022/11/23 04:00:33;;;;;;;13.68;5.87;;;;;;;;;;1731699;82;21532;-64
2022/11/23 04:02:59;;;;;;;13.45;6.20;;;;;;;;;;1727542;82;21088;-64
2022/11/23 04:05:33;;;;;;;15.98;5.95;;;;;;;;;;1692859;83;21057;-64
2022/11/23 04:08:05;;;;;;;15.38;7.00;;;;;;;;;;1706221;82;21081;-64
2022/11/23 04:10:31;;;;;;;14.07;6.47;;;;;;;;;;1694201;84;21486;-64
2022/11/23 04:13:02;;;;;;;12.18;6.47;;;;;;;;;;1690384;83;21053;-64
2022/11/23 04:15:29;;;;;;;13.58;6.40;;;;;;;;;;1707530;84;21174;-64
2022/11/23 04:17:57;;;;;;;15.35;7.10;;;;;;;;;;1715496;84;21041;-64
2022/11/23 04:20:23;;;;;;;13.60;6.12;;;;;;;;;;1715307;84;21084;-63
2022/11/23 04:22:49;;;;;;;12.93;6.10;;;;;;;;;;1702775;83;21100;-63
2022/11/23 04:25:16;;;;;;;9.85;4.95;;;;;;;;;;1696694;83;20994;-64
2022/11/23 04:27:43;;;;;;;15.08;6.05;;;;;;;;;;1706588;83;21052;-63
2022/11/23 04:30:10;;;;;;;13.08;6.12;;;;;;;;;;1666751;85;21061;-63
2022/11/23 04:32:36;;;;;;;11.40;5.70;;;;;;;;;;1694091;83;21508;-65
2022/11/23 04:35:04;;;;;;;12.70;5.60;;;;;;;;;;1683016;83;21429;-64
2022/11/23 04:37:31;;;;;;;11.43;5.50;;;;;;;;;;1682220;83;21088;-63
2022/11/23 04:39:57;;;;;;;13.78;6.50;;;;;;;;;;1704283;83;21069;-64
2022/11/23 04:42:37;;;;;;;14.87;6.60;;;;;;;;;;1704830;83;20975;-65
2022/11/23 04:45:04;;;;;;;12.23;5.65;;;;;;;;;;1705372;83;21057;-64
2022/11/23 04:47:31;;;;;;;14.68;6.67;;;;;;;;;;1733572;81;21043;-64
2022/11/23 04:49:59;;;;;;;13.35;5.70;;;;;;;;;;1718889;82;21061;-65
2022/11/23 04:52:25;;;;;;;13.40;6.35;;;;;;;;;;1703320;82;21039;-64
2022/11/23 04:54:52;;;;;;;13.93;6.15;;;;;;;;;;1709782;82;21088;-63
2022/11/23 04:57:19;;;;;;;16.48;6.53;;;;;;;;;;1684368;84;21055;-64
2022/11/23 04:59:46;;;;;;;9.63;5.10;;;;;;;;;;1703199;83;21076;-62
2022/11/23 05:02:12;;;;;;;12.15;5.40;;;;;;;;;;1683685;84;21029;-63
2022/11/23 05:04:46;;;;;;;11.80;5.35;;;;;;;;;;1725175;82;21137;-63
2022/11/23 05:07:13;;;;;;;13.80;6.37;;;;;;;;;;1735371;82;21072;-63
2022/11/23 05:09:40;;;;;;;12.70;5.42;;;;;;;;;;1736070;82;21061;-64
2022/11/23 05:12:13;;;;;;;11.63;5.90;;;;;;;;;;1729935;82;21040;-66
2022/11/23 05:14:41;;;;;;;11.85;6.03;;;;;;;;;;1733077;82;21009;-65
2022/11/23 05:17:09;;;;;;;11.73;5.40;;;;;;;;;;1735339;82;21064;-63
2022/11/23 05:19:35;;;;;;;12.73;5.97;;;;;;;;;;1738546;82;21009;-63
2022/11/23 05:22:02;;;;;;;12.58;5.95;;;;;;;;;;1735942;82;22120;-63
2022/11/23 05:24:30;;;;;;;10.23;5.70;;;;;;;;;;1706167;82;21540;-65
2022/11/23 05:26:58;;;;;;;11.68;5.92;;;;;;;;;;1693061;83;21029;-63
2022/11/23 05:29:24;;;;;;;12.00;6.30;;;;;;;;;;1736753;82;22438;-64
2022/11/23 05:31:51;;;;;;;12.82;6.15;;;;;;;;;;1734535;82;21013;-65
2022/11/23 05:34:18;;;;;;;12.28;6.17;;;;;;;;;;1740977;82;21084;-64
2022/11/23 05:36:45;;;;;;;10.18;6.25;;;;;;;;;;1711392;83;21056;-64
2022/11/23 05:39:12;;;;;;;13.83;7.00;;;;;;;;;;1741205;82;21512;-64
2022/11/23 05:41:39;;;;;;;11.73;6.12;;;;;;;;;;1692435;84;21556;-64
2022/11/23 05:44:07;;;;;;;15.68;6.30;;;;;;;;;;1698182;83;21105;-64
2022/11/23 05:46:33;;;;;;;12.58;6.25;;;;;;;;;;1700548;83;21032;-64
2022/11/23 05:49:00;;;;;;;14.80;7.20;;;;;;;;;;1708029;82;21047;-64
2022/11/23 05:51:28;;;;;;;15.28;7.37;;;;;;;;;;1734300;82;21136;-63
2022/11/23 05:53:56;;;;;;;12.73;7.40;;;;;;;;;;1723580;82;21040;-65
2022/11/23 05:56:24;;;;;;;12.28;6.65;;;;;;;;;;1730786;81;22404;-64
2022/11/23 05:59:10;;;;;;;14.13;7.92;;;;;;;;;;1707432;83;21053;-66
2022/11/23 06:01:37;;;;;;;13.58;7.37;;;;;;;;;;1748620;81;21571;-64
2022/11/23 06:04:05;;;;;;;13.98;6.42;;;;;;;;;;1744165;82;21128;-64
2022/11/23 06:06:33;;;;;;;11.63;6.37;;;;;;;;;;1711467;82;21053;-64
2022/11/23 06:09:00;;;;;;;13.03;6.45;;;;;;;;;;1706955;83;21052;-64
2022/11/23 06:11:26;;;;;;;13.15;6.55;;;;;;;;;;1709791;83;21069;-64
2022/11/23 06:13:54;;;;;;;12.98;6.37;;;;;;;;;;1691019;83;21035;-64
2022/11/23 06:16:20;;;;;;;16.12;6.90;;;;;;;;;;1712517;83;20993;-63
2022/11/23 06:18:51;;;;;;;23.30;9.33;;;;;;;;;;1713985;83;21026;-65
2022/11/23 06:21:18;;;;;;;16.32;7.08;;;;;;;;;;1711035;83;21040;-64
2022/11/23 06:23:46;;;;;;;15.25;6.72;;;;;;;;;;1714240;83;21591;-66
2022/11/23 06:26:13;;;;;;;13.35;5.65;;;;;;;;;;1708899;83;21037;-63
2022/11/23 06:28:40;;;;;;;15.30;6.50;;;;;;;;;;1706654;83;21638;-64
2022/11/23 06:31:08;;;;;;;12.00;6.10;;;;;;;;;;1709523;83;21052;-64
2022/11/23 06:33:34;;;;;;;9.30;4.97;;;;;;;;;;1705830;83;21539;-64
2022/11/23 06:36:01;;;;;;;9.08;4.50;;;;;;;;;;1718021;83;21060;-64
2022/11/23 06:38:29;;;;;;;7.67;4.92;;;;;;;;;;1728215;83;21551;-64
2022/11/23 06:41:01;;;;;;;9.35;4.70;;;;;;;;;;1728271;83;21080;-64
2022/11/23 06:43:27;;;;;;;8.80;4.60;;;;;;;;;;1726368;83;21524;-66
2022/11/23 06:45:54;;;;;;;8.30;4.72;;;;;;;;;;1708133;83;21525;-64
2022/11/23 07:07:16;;;;;;;11.35;6.30;;;;;;;;;;1822695;77;22201;-64
2022/11/23 07:09:47;;;;;;;11.35;6.20;;;;;;;;;;1782279;80;20996;-64
2022/11/23 07:12:21;;;;;;;12.98;6.00;;;;;;;;;;1776593;80;21587;-63
2022/11/23 07:14:49;;;;;;;12.73;6.05;;;;;;;;;;1789352;80;21048;-63
2022/11/23 07:17:15;;;;;;;11.53;6.00;;;;;;;;;;1780954;80;21016;-64
2022/11/23 07:19:42;;;;;;;10.55;5.35;;;;;;;;;;1769431;80;21025;-63
2022/11/23 07:22:09;;;;;;;11.25;5.72;;;;;;;;;;1783299;80;21550;-66
2022/11/23 07:24:38;;;;;;;14.95;6.92;;;;;;;;;;1755745;81;21064;-64
2022/11/23 07:27:06;;;;;;;13.78;6.80;;;;;;;;;;1769991;80;21064;-64
2022/11/23 07:29:34;;;;;;;16.15;7.92;;;;;;;;;;1771647;80;21594;-64
2022/11/23 07:32:00;;;;;;;14.73;6.80;;;;;;;;;;1767420;80;21063;-65
2022/11/23 07:34:28;;;;;;;12.00;6.15;;;;;;;;;;1775088;80;21500;-64
2022/11/23 07:36:55;;;;;;;13.10;6.67;;;;;;;;;;1792840;80;21009;-64
2022/11/23 07:39:22;;;;;;;11.70;6.12;;;;;;;;;;1770333;80;21472;-63
2022/11/23 07:41:50;;;;;;;10.72;5.40;;;;;;;;;;1763019;80;20988;-64
2022/11/23 07:44:17;;;;;;;8.70;4.78;;;;;;;;;;1757251;80;21017;-64
2022/11/23 07:46:44;;;;;;;11.63;5.72;;;;;;;;;;1779292;80;21036;-64
2022/11/23 07:49:10;;;;;;;9.83;5.33;;;;;;;;;;1786118;80;21056;-64
2022/11/23 07:51:36;;;;;;;10.15;5.67;;;;;;;;;;1781879;80;21044;-64
2022/11/23 07:54:02;;;;;;;10.78;5.45;;;;;;;;;;1787643;80;21003;-64
2022/11/23 07:56:29;;;;;;;11.00;5.65;;;;;;;;;;1776418;80;21013;-63
2022/11/23 07:58:55;;;;;;;7.05;4.72;;;;;;;;;;1786403;80;21060;-64
2022/11/23 08:01:21;;;;;;;9.35;4.90;;;;;;;;;;1779269;80;21023;-63
2022/11/23 08:03:48;;;;;;;11.45;5.25;;;;;;;;;;1772404;80;21064;-64
2022/11/23 08:06:16;;;;;;;8.33;4.35;;;;;;;;;;1787212;79;21114;-64
2022/11/23 08:08:42;;;;;;;9.30;4.95;;;;;;;;;;1778273;80;21552;-64
2022/11/23 08:13:50;;;;;;;9.08;4.78;;;;;;;;;;1703227;83;21143;-67
2022/11/23 08:16:17;;;;;;;10.80;4.83;;;;;;;;;;1712706;83;21012;-66
2022/11/23 08:18:43;;;;;;;10.18;4.97;;;;;;;;;;1685397;84;21101;-66
2022/11/23 08:21:09;;;;;;;11.10;5.28;;;;;;;;;;1705949;83;21084;-66
2022/11/23 08:23:36;;;;;;;9.90;5.55;;;;;;;;;;1682908;84;21544;-65
2022/11/23 08:26:03;;;;;;;11.22;6.30;;;;;;;;;;1702368;83;21009;-66
2022/11/23 08:28:29;;;;;;;11.43;5.85;;;;;;;;;;1694391;83;21046;-66
2022/11/23 08:30:55;;;;;;;11.43;6.22;;;;;;;;;;1679686;84;21106;-65
2022/11/23 08:33:22;;;;;;;10.95;5.40;;;;;;;;;;1680625;84;21084;-65
2022/11/23 08:35:48;;;;;;;10.45;6.20;;;;;;;;;;1691726;84;21550;-66
2022/11/23 08:38:14;;;;;;;12.20;5.62;;;;;;;;;;1697888;84;21037;-67
2022/11/23 08:40:40;;;;;;;12.60;5.95;;;;;;;;;;1682612;85;21000;-68
2022/11/23 08:43:07;;;;;;;13.35;6.70;;;;;;;;;;1680640;84;21055;-66
2022/11/23 08:45:33;;;;;;;14.40;7.37;;;;;;;;;;1700072;84;21039;-66
2022/11/23 08:48:00;;;;;;;13.93;6.50;;;;;;;;;;1679385;84;21098;-67
2022/11/23 08:50:28;;;;;;;15.70;7.33;;;;;;;;;;1709948;84;21027;-67
2022/11/23 08:52:55;;;;;;;13.55;7.25;;;;;;;;;;1711273;84;21518;-67
2022/11/23 08:55:22;;;;;;;11.60;6.70;;;;;;;;;;1708395;84;21094;-67
2022/11/23 08:57:49;;;;;;;14.00;7.15;;;;;;;;;;1713924;83;21005;-67
2022/11/23 09:00:16;;;;;;;12.85;5.78;;;;;;;;;;1712950;83;21048;-67
2022/11/23 09:02:43;;;;;;;11.55;6.28;;;;;;;;;;1702885;83;21015;-67
2022/11/23 09:05:10;;;;;;;12.93;6.33;;;;;;;;;;1706513;83;21090;-67
2022/11/23 09:07:36;;;;;;;11.88;5.97;;;;;;;;;;1683990;84;20999;-68
2022/11/23 09:10:04;;;;;;;14.35;6.75;;;;;;;;;;1674775;84;21509;-67
2022/11/23 09:12:30;;;;;;;13.53;6.97;;;;;;;;;;1710550;81;21602;-67
2022/11/23 09:14:57;;;;;;;13.85;7.20;;;;;;;;;;1721682;82;21549;-66
2022/11/23 09:17:23;;;;;;;12.58;6.78;;;;;;;;;;1722296;82;21453;-66
2022/11/23 09:19:50;;;;;;;10.30;6.40;;;;;;;;;;1710332;82;20990;-66
2022/11/23 09:22:16;;;;;;;14.98;6.85;;;;;;;;;;1714864;82;21054;-66
2022/11/23 09:24:42;;;;;;;14.53;6.75;;;;;;;;;;1651149;87;21095;-66
2022/11/23 09:27:09;;;;;;;16.80;7.25;;;;;;;;;;1663451;85;21124;-67
2022/11/23 09:29:35;;;;;;;13.93;7.47;;;;;;;;;;1718337;82;21093;-67
2022/11/23 09:32:02;;;;;;;15.03;6.58;;;;;;;;;;1709372;83;21512;-66
2022/11/23 09:34:28;;;;;;;14.45;7.00;;;;;;;;;;1708063;84;21030;-66
2022/11/23 09:36:56;;;;;;;15.60;7.33;;;;;;;;;;1719164;82;21493;-66
2022/11/23 09:39:22;;;;;;;13.70;6.80;;;;;;;;;;1712228;82;21069;-73
2022/11/23 09:42:07;;;;;;;18.98;7.87;;;;;;;;;;1680884;84;21080;-68
2022/11/23 09:44:41;;;;;;;17.05;7.95;;;;;;;;;;1714817;82;21092;-69
2022/11/23 09:47:09;;;;;;;15.50;7.03;;;;;;;;;;1716627;82;21492;-70
2022/11/23 09:49:44;;;;;;;16.75;8.35;;;;;;;;;;1715518;82;21513;-74
2022/11/23 09:52:14;;;;;;;17.20;8.53;;;;;;;;;;1711039;82;21076;-72
2022/11/23 09:54:42;;;;;;;16.87;7.85;;;;;;;;;;1710233;82;21033;-70
2022/11/23 09:57:08;;;;;;;15.55;8.20;;;;;;;;;;1710905;82;21060;-72
2022/11/23 09:59:46;;;;;;;16.93;8.33;;;;;;;;;;1710715;82;20994;-72
2022/11/23 10:02:16;;;;;;;18.87;8.80;;;;;;;;;;1711714;82;21508;-68
2022/11/23 10:04:43;;;;;;;20.65;8.53;;;;;;;;;;1677770;84;21541;-68
2022/11/23 10:07:23;;;;;;;20.25;8.83;;;;;;;;;;1660390;85;21053;-68
2022/11/23 10:09:51;;;;;;;20.80;8.55;;;;;;;;;;1650985;86;21046;-69
2022/11/23 10:12:22;;;;;;;16.85;8.30;;;;;;;;;;1718085;82;21060;-70
2022/11/23 10:14:53;;;;;;;18.15;8.95;;;;;;;;;;1687780;84;21051;-68
2022/11/23 10:17:25;;;;;;;20.48;9.08;;;;;;;;;;1683288;84;21107;-68
2022/11/23 10:20:10;;;;;;;18.12;8.18;;;;;;;;;;1681401;84;21079;-68
2022/11/23 10:22:42;;;;;;;18.87;8.35;;;;;;;;;;1642021;85;21530;-68
2022/11/23 10:25:10;;;;;;;18.52;9.03;;;;;;;;;;1676406;84;21112;-66
2022/11/23 10:27:36;;;;;;;16.80;9.25;;;;;;;;;;1646067;86;21035;-69
2022/11/23 10:30:04;;;;;;;23.47;9.45;;;;;;;;;;1681448;84;21085;-69
2022/11/23 10:32:39;;;;;;;21.48;9.23;;;;;;;;;;1667837;84;21066;-68
2022/11/23 10:35:07;;;;;;;20.90;9.90;;;;;;;;;;1688257;84;21074;-68
2022/11/23 10:37:33;;;;;;;17.77;8.13;;;;;;;;;;1675036;84;21103;-68
2022/11/23 10:40:00;;;;;;;23.35;9.88;;;;;;;;;;1683731;84;21545;-67
2022/11/23 10:42:31;;;;;;;21.10;9.58;;;;;;;;;;1639047;86;21063;-69
2022/11/23 10:44:58;;;;;;;22.20;10.48;;;;;;;;;;1671292;84;21554;-68
2022/11/23 10:47:40;;;;;;;18.35;10.05;;;;;;;;;;1673355;84;21119;-69
2022/11/23 10:50:25;;;;;;;21.15;9.18;;;;;;;;;;1681710;84;21573;-70
2022/11/23 10:52:59;;;;;;;18.23;8.30;;;;;;;;;;1671279;85;21032;-69
2022/11/23 10:55:27;;;;;;;16.10;7.67;;;;;;;;;;1642156;87;21072;-69
2022/11/23 10:57:53;;;;;;;18.50;8.40;;;;;;;;;;1642753;86;21063;-67
2022/11/23 11:00:20;;;;;;;15.08;7.87;;;;;;;;;;1700481;84;21063;-66
2022/11/23 11:02:48;;;;;;;18.00;8.25;;;;;;;;;;1638304;86;21564;-66
2022/11/23 11:05:25;;;;;;;17.48;7.90;;;;;;;;;;1642852;86;21070;-66
2022/11/23 11:07:52;;;;;;;20.60;9.48;;;;;;;;;;1688742;84;21075;-66
2022/11/23 11:10:32;;;;;;;18.17;8.95;;;;;;;;;;1691494;84;21082;-67
2022/11/23 11:12:59;;;;;;;17.98;8.55;;;;;;;;;;1703286;81;21473;-67
2022/11/23 11:15:25;;;;;;;17.77;8.98;;;;;;;;;;1680365;83;21040;-66
2022/11/23 11:17:58;;;;;;;17.75;7.75;;;;;;;;;;1683267;85;21044;-66
2022/11/23 11:20:30;;;;;;;18.25;8.98;;;;;;;;;;1686570;83;21025;-66
2022/11/23 11:22:57;;;;;;;20.17;9.40;;;;;;;;;;1715836;82;21068;-67
2022/11/23 11:25:30;;;;;;;21.73;8.48;;;;;;;;;;1728665;82;21095;-68
2022/11/23 11:27:57;;;;;;;18.77;9.93;;;;;;;;;;1689923;83;21056;-68
2022/11/23 11:30:24;;;;;;;19.12;9.65;;;;;;;;;;1718293;82;21088;-68
2022/11/23 11:32:52;;;;;;;18.95;8.53;;;;;;;;;;1718268;82;21016;-68
2022/11/23 11:35:22;;;;;;;19.20;9.70;;;;;;;;;;1717452;82;21137;-66
2022/11/23 11:37:49;;;;;;;20.20;9.03;;;;;;;;;;1679809;83;21088;-67
2022/11/23 11:40:29;;;;;;;20.68;9.10;;;;;;;;;;1663938;85;21645;-67
2022/11/23 11:43:03;;;;;;;16.45;8.20;;;;;;;;;;1718109;82;21859;-68
2022/11/23 11:45:33;;;;;;;15.83;8.25;;;;;;;;;;1716529;82;21546;-66
2022/11/23 11:48:01;;;;;;;18.50;8.60;;;;;;;;;;1719499;82;21112;-66
2022/11/23 11:50:33;;;;;;;19.90;8.33;;;;;;;;;;1723823;82;21048;-67
2022/11/23 11:53:01;;;;;;;18.55;8.90;;;;;;;;;;1715371;82;22112;-66
2022/11/23 11:55:29;;;;;;;17.98;9.00;;;;;;;;;;1684578;84;21033;-65
2022/11/23 11:57:57;;;;;;;22.32;9.48;;;;;;;;;;1722543;82;21013;-66
2022/11/23 12:00:23;;;;;;;17.87;9.25;;;;;;;;;;1722365;82;21021;-66
2022/11/23 12:03:00;;;;;;;19.48;8.28;;;;;;;;;;1721758;82;21037;-65
2022/11/23 12:05:31;;;;;;;24.70;11.50;;;;;;;;;;1682662;83;21052;-66
2022/11/23 12:08:08;;;;;;;21.33;10.35;;;;;;;;;;1665658;85;21108;-67
2022/11/23 12:10:45;;;;;;;19.90;10.68;;;;;;;;;;1665771;84;21155;-68
2022/11/23 12:13:16;;;;;;;25.55;10.80;;;;;;;;;;1664181;84;21084;-68
2022/11/23 12:15:45;;;;;;;20.02;10.15;;;;;;;;;;1662767;85;21026;-69
2022/11/23 12:18:22;;;;;;;22.35;10.70;;;;;;;;;;1717657;82;21041;-68
2022/11/23 12:20:50;;;;;;;22.65;9.85;;;;;;;;;;1668851;84;21476;-69
2022/11/23 12:23:25;;;;;;;19.70;9.30;;;;;;;;;;1674569;85;21646;-68
2022/11/23 12:26:02;;;;;;;22.22;11.12;;;;;;;;;;1712902;82;21096;-68
2022/11/23 12:28:30;;;;;;;21.85;10.38;;;;;;;;;;1714273;82;22101;-69
2022/11/23 12:31:16;;;;;;;21.42;9.88;;;;;;;;;;1711711;82;21112;-68
2022/11/23 12:33:44;;;;;;;22.40;11.22;;;;;;;;;;1712630;82;21091;-68
2022/11/23 12:52:43;;;;;;;29.37;14.65;;;;;;;;;;1839397;77;28736;-62
2022/11/23 12:55:18;;;;;;;28.67;13.68;;;;;;;;;;1797751;79;21024;-63
2022/11/23 12:57:45;;;;;;;28.62;13.10;;;;;;;;;;1765013;80;21044;-62
2022/11/23 13:00:13;;;;;;;27.95;12.98;;;;;;;;;;1797892;79;21082;-62
2022/11/23 13:02:48;;;;;;;29.10;12.95;;;;;;;;;;1794918;79;21019;-63
2022/11/23 13:05:25;;;;;;;25.85;11.97;;;;;;;;;;1773554;80;21039;-63
2022/11/23 13:07:55;;;;;;;24.98;13.32;;;;;;;;;;1763194;79;21047;-64
2022/11/23 13:10:23;;;;;;;30.37;14.15;;;;;;;;;;1803560;77;21039;-63
2022/11/23 13:12:54;;;;;;;37.60;16.30;;;;;;;;;;1805067;77;21040;-63
2022/11/23 13:15:40;;;;;;;28.75;12.60;;;;;;;;;;1806702;78;21050;-63
2022/11/23 13:18:17;;;;;;;28.73;12.50;;;;;;;;;;1803079;77;21179;-62
2022/11/23 13:20:51;;;;;;;25.48;11.45;;;;;;;;;;1804142;77;21054;-62
2022/11/23 13:23:20;;;;;;;28.07;12.13;;;;;;;;;;1804420;78;21559;-62
2022/11/23 13:25:45;;;;;;;33.18;13.85;;;;;;;;;;1808693;78;21010;-62
2022/11/23 13:28:27;;;;;;;27.13;11.75;;;;;;;;;;1796769;78;21003;-62
2022/11/23 13:31:05;;;;;;;29.27;12.05;;;;;;;;;;1803616;77;22311;-62
2022/11/23 13:33:33;;;;;;;29.20;12.50;;;;;;;;;;1783824;77;21331;-62
2022/11/23 13:35:59;;;;;;;32.50;15.23;;;;;;;;;;1763230;80;21105;-62
2022/11/23 13:38:26;;;;;;;27.48;12.60;;;;;;;;;;1770247;79;21025;-65
2022/11/23 13:40:52;;;;;;;27.95;13.28;;;;;;;;;;1755304;80;21016;-63
2022/11/23 13:43:23;;;;;;;27.75;12.78;;;;;;;;;;1768505;80;21136;-62
2022/11/23 13:46:06;;;;;;;29.87;14.03;;;;;;;;;;1738845;81;21047;-63
2022/11/23 13:48:43;;;;;;;28.15;12.35;;;;;;;;;;1748751;80;21095;-62
2022/11/23 13:51:09;;;;;;;29.80;12.18;;;;;;;;;;1745326;80;21075;-62
2022/11/23 13:53:36;;;;;;;30.88;12.65;;;;;;;;;;1725244;82;21060;-62
2022/11/23 13:56:23;;;;;;;31.48;12.75;;;;;;;;;;1740699;81;21070;-63
2022/11/23 13:58:50;;;;;;;27.42;13.08;;;;;;;;;;1745802;81;21044;-62
2022/11/23 14:01:35;;;;;;;31.95;13.68;;;;;;;;;;1714525;82;21007;-62
2022/11/23 14:04:20;;;;;;;26.65;12.43;;;;;;;;;;1726375;82;21089;-62
2022/11/23 14:06:47;;;;;;;31.57;11.85;;;;;;;;;;1741436;81;21127;-62
2022/11/23 14:09:15;;;;;;;28.90;12.80;;;;;;;;;;1743304;81;21022;-63
2022/11/23 14:11:43;;;;;;;27.65;12.25;;;;;;;;;;1721942;82;21077;-63
2022/11/23 14:14:11;;;;;;;28.67;11.48;;;;;;;;;;1715067;82;21532;-62
2022/11/23 14:16:43;;;;;;;25.97;11.05;;;;;;;;;;1717392;82;21211;-63
2022/11/23 14:19:19;;;;;;;23.50;10.35;;;;;;;;;;1705706;82;21018;-63
2022/11/23 14:21:53;;;;;;;31.17;12.28;;;;;;;;;;1740237;81;21042;-62
2022/11/23 14:24:30;;;;;;;27.05;13.38;;;;;;;;;;1738596;82;21038;-62
2022/11/23 14:27:01;;;;;;;25.68;11.53;;;;;;;;;;1737907;82;20979;-61
2022/11/23 14:29:29;;;;;;;27.15;11.88;;;;;;;;;;1736981;82;21567;-61
2022/11/23 14:32:00;;;;;;;24.85;11.57;;;;;;;;;;1739091;81;21065;-62
2022/11/23 14:34:41;;;;;;;35.28;14.55;;;;;;;;;;1742614;81;21055;-62
2022/11/23 14:37:16;;;;;;;29.98;15.78;;;;;;;;;;1741833;81;21059;-61
2022/11/23 14:39:59;;;;;;;26.10;11.60;;;;;;;;;;1742336;81;21084;-61
2022/11/23 14:42:26;;;;;;;29.37;12.82;;;;;;;;;;1742556;81;21063;-62
2022/11/23 14:44:52;;;;;;;27.40;12.50;;;;;;;;;;1744896;81;21008;-62
2022/11/23 14:47:27;;;;;;;25.32;12.75;;;;;;;;;;1743657;81;20987;-62
2022/11/23 14:49:54;;;;;;;;;;;;;;;;;;1727092;82;21034;-62
2022/11/23 14:52:27;;;;;;;22.58;11.45;;;;;;;;;;1740548;80;20230;-63
2022/11/23 14:54:55;;;;;;;27.40;12.10;;;;;;;;;;1747130;80;21061;-62
2022/11/23 14:57:22;;;;;;;27.42;12.45;;;;;;;;;;1762778;80;20946;-62
2022/11/23 14:59:51;;;;;;;24.12;11.90;;;;;;;;;;1767420;80;20996;-61
2022/11/23 15:02:19;;;;;;;26.00;10.85;;;;;;;;;;1778615;79;21809;-62
2022/11/23 15:04:52;;;;;;;24.77;10.95;;;;;;;;;;1778641;79;21041;-62
2022/11/23 15:07:22;;;;;;;22.55;10.75;;;;;;;;;;1755916;80;20964;-62
2022/11/23 15:09:59;;;;;;;24.20;10.82;;;;;;;;;;1758499;80;20980;-62
2022/11/23 15:12:26;;;;;;;21.68;9.65;;;;;;;;;;1758208;80;21008;-64
2022/11/23 15:14:56;;;;;;;19.20;8.78;;;;;;;;;;1755778;80;21112;-62
2022/11/23 15:17:22;;;;;;;24.07;12.43;;;;;;;;;;1760483;80;21062;-62
2022/11/23 15:19:58;;;;;;;24.20;11.55;;;;;;;;;;1754650;80;21062;-62